sensor_id;sensor_type;location;lat;lon;timestamp;P1;durP1;ratioP1;P2;durP2;ratioP2
65759;SDS011;52496;51.082;5.066;2024-03-29T00:01:32;3.50;;;1.00;;
65759;SDS011;52496;51.082;5.066;2024-03-29T00:04:03;4.25;;;1.20;;
65759;SDS011;52496;51.082;5.066;2024-03-29T00:06:33;3.88;;;0.98;;
65759;SDS011;52496;51.082;5.066;2024-03-29T00:09:04;1.75;;;1.00;;
65759;SDS011;52496;51.082;5.066;2024-03-29T00:11:34;2.10;;;0.60;;
65759;SDS011;52496;51.082;5.066;2024-03-29T00:14:05;1.95;;;1.05;;
65759;SDS011;52496;51.082;5.066;2024-03-29T00:16:35;2.25;;;0.75;;
65759;SDS011;52496;51.082;5.066;2024-03-29T00:19:06;4.40;;;1.02;;
65759;SDS011;52496;51.082;5.066;2024-03-29T00:21:36;3.03;;;1.13;;
65759;SDS011;52496;51.082;5.066;2024-03-29T00:24:07;3.97;;;1.38;;
65759;SDS011;52496;51.082;5.066;2024-03-29T00:26:37;2.38;;;0.93;;
65759;SDS011;52496;51.082;5.066;2024-03-29T00:29:07;7.03;;;1.15;;
65759;SDS011;52496;51.082;5.066;2024-03-29T00:31:38;4.32;;;1.17;;
65759;SDS011;52496;51.082;5.066;2024-03-29T00:34:08;1.77;;;0.90;;
65759;SDS011;52496;51.082;5.066;2024-03-29T00:36:39;7.47;;;1.40;;
65759;SDS011;52496;51.082;5.066;2024-03-29T00:39:09;4.00;;;1.50;;
65759;SDS011;52496;51.082;5.066;2024-03-29T00:41:41;3.13;;;1.17;;
65759;SDS011;52496;51.082;5.066;2024-03-29T00:44:12;5.53;;;1.30;;
65759;SDS011;52496;51.082;5.066;2024-03-29T00:46:42;1.42;;;0.82;;
65759;SDS011;52496;51.082;5.066;2024-03-29T00:49:13;5.30;;;1.33;;
65759;SDS011;52496;51.082;5.066;2024-03-29T00:51:43;3.15;;;0.93;;
65759;SDS011;52496;51.082;5.066;2024-03-29T00:54:14;4.22;;;1.30;;
65759;SDS011;52496;51.082;5.066;2024-03-29T00:56:44;2.40;;;1.08;;
65759;SDS011;52496;51.082;5.066;2024-03-29T00:59:14;2.58;;;1.30;;
65759;SDS011;52496;51.082;5.066;2024-03-29T01:01:45;3.25;;;1.23;;
65759;SDS011;52496;51.082;5.066;2024-03-29T01:04:17;2.08;;;0.98;;
65759;SDS011;52496;51.082;5.066;2024-03-29T01:06:47;2.25;;;1.10;;
65759;SDS011;52496;51.082;5.066;2024-03-29T01:09:18;4.00;;;1.42;;
65759;SDS011;52496;51.082;5.066;2024-03-29T01:11:49;6.55;;;1.40;;
65759;SDS011;52496;51.082;5.066;2024-03-29T01:14:20;4.30;;;1.35;;
65759;SDS011;52496;51.082;5.066;2024-03-29T01:16:51;2.28;;;1.13;;
65759;SDS011;52496;51.082;5.066;2024-03-29T01:19:22;2.35;;;1.00;;
65759;SDS011;52496;51.082;5.066;2024-03-29T01:21:53;1.27;;;0.90;;
65759;SDS011;52496;51.082;5.066;2024-03-29T01:24:24;1.13;;;0.85;;
65759;SDS011;52496;51.082;5.066;2024-03-29T01:26:54;2.42;;;1.10;;
65759;SDS011;52496;51.082;5.066;2024-03-29T01:29:25;5.63;;;1.23;;
65759;SDS011;52496;51.082;5.066;2024-03-29T01:31:55;2.33;;;1.02;;
65759;SDS011;52496;51.082;5.066;2024-03-29T01:34:26;5.85;;;1.27;;
65759;SDS011;52496;51.082;5.066;2024-03-29T01:36:56;1.85;;;0.90;;
65759;SDS011;52496;51.082;5.066;2024-03-29T01:39:26;1.83;;;0.98;;
65759;SDS011;52496;51.082;5.066;2024-03-29T01:42:01;1.25;;;0.80;;
65759;SDS011;52496;51.082;5.066;2024-03-29T01:44:32;3.45;;;1.30;;
65759;SDS011;52496;51.082;5.066;2024-03-29T01:47:02;1.38;;;0.95;;
65759;SDS011;52496;51.082;5.066;2024-03-29T01:49:33;1.63;;;0.80;;
65759;SDS011;52496;51.082;5.066;2024-03-29T01:52:04;4.80;;;1.52;;
65759;SDS011;52496;51.082;5.066;2024-03-29T01:54:35;2.15;;;1.02;;
65759;SDS011;52496;51.082;5.066;2024-03-29T01:57:06;1.63;;;1.40;;
65759;SDS011;52496;51.082;5.066;2024-03-29T01:59:37;2.60;;;0.73;;
65759;SDS011;52496;51.082;5.066;2024-03-29T02:02:08;1.05;;;0.60;;
65759;SDS011;52496;51.082;5.066;2024-03-29T02:04:41;2.58;;;0.90;;
65759;SDS011;52496;51.082;5.066;2024-03-29T02:07:12;2.28;;;1.10;;
65759;SDS011;52496;51.082;5.066;2024-03-29T02:09:43;1.92;;;1.05;;
65759;SDS011;52496;51.082;5.066;2024-03-29T02:12:14;1.63;;;0.93;;
65759;SDS011;52496;51.082;5.066;2024-03-29T02:14:44;2.38;;;0.93;;
65759;SDS011;52496;51.082;5.066;2024-03-29T02:17:15;0.85;;;0.82;;
65759;SDS011;52496;51.082;5.066;2024-03-29T02:19:45;1.17;;;0.55;;
65759;SDS011;52496;51.082;5.066;2024-03-29T02:22:15;1.75;;;0.90;;
65759;SDS011;52496;51.082;5.066;2024-03-29T02:24:47;4.95;;;0.85;;
65759;SDS011;52496;51.082;5.066;2024-03-29T02:27:18;1.83;;;0.73;;
65759;SDS011;52496;51.082;5.066;2024-03-29T02:29:49;0.93;;;0.57;;
65759;SDS011;52496;51.082;5.066;2024-03-29T02:32:19;1.10;;;0.70;;
65759;SDS011;52496;51.082;5.066;2024-03-29T02:34:49;2.72;;;0.82;;
65759;SDS011;52496;51.082;5.066;2024-03-29T02:37:20;4.30;;;0.98;;
65759;SDS011;52496;51.082;5.066;2024-03-29T02:39:50;0.75;;;0.63;;
65759;SDS011;52496;51.082;5.066;2024-03-29T02:42:21;2.00;;;0.82;;
65759;SDS011;52496;51.082;5.066;2024-03-29T02:44:51;1.73;;;0.90;;
65759;SDS011;52496;51.082;5.066;2024-03-29T02:47:22;1.20;;;0.80;;
65759;SDS011;52496;51.082;5.066;2024-03-29T02:49:53;1.05;;;0.68;;
65759;SDS011;52496;51.082;5.066;2024-03-29T02:52:23;2.50;;;0.65;;
65759;SDS011;52496;51.082;5.066;2024-03-29T02:54:54;2.10;;;1.25;;
65759;SDS011;52496;51.082;5.066;2024-03-29T02:57:24;2.97;;;0.88;;
65759;SDS011;52496;51.082;5.066;2024-03-29T02:59:55;4.88;;;1.33;;
65759;SDS011;52496;51.082;5.066;2024-03-29T03:02:25;1.83;;;0.77;;
65759;SDS011;52496;51.082;5.066;2024-03-29T03:04:56;2.42;;;0.98;;
65759;SDS011;52496;51.082;5.066;2024-03-29T03:07:27;1.08;;;0.82;;
65759;SDS011;52496;51.082;5.066;2024-03-29T03:10:16;2.78;;;0.98;;
65759;SDS011;52496;51.082;5.066;2024-03-29T03:13:05;1.00;;;0.75;;
65759;SDS011;52496;51.082;5.066;2024-03-29T03:15:35;3.17;;;1.35;;
65759;SDS011;52496;51.082;5.066;2024-03-29T03:18:06;3.13;;;1.40;;
65759;SDS011;52496;51.082;5.066;2024-03-29T03:20:36;2.25;;;1.27;;
65759;SDS011;52496;51.082;5.066;2024-03-29T03:23:08;1.38;;;0.80;;
65759;SDS011;52496;51.082;5.066;2024-03-29T03:25:38;2.25;;;1.45;;
65759;SDS011;52496;51.082;5.066;2024-03-29T03:28:09;1.58;;;1.27;;
65759;SDS011;52496;51.082;5.066;2024-03-29T03:30:39;0.93;;;0.73;;
65759;SDS011;52496;51.082;5.066;2024-03-29T03:33:10;1.98;;;1.05;;
65759;SDS011;52496;51.082;5.066;2024-03-29T03:35:41;1.02;;;0.90;;
65759;SDS011;52496;51.082;5.066;2024-03-29T03:38:12;1.25;;;0.88;;
65759;SDS011;52496;51.082;5.066;2024-03-29T03:40:43;1.60;;;0.95;;
65759;SDS011;52496;51.082;5.066;2024-03-29T03:43:13;1.98;;;0.98;;
65759;SDS011;52496;51.082;5.066;2024-03-29T03:45:44;3.30;;;1.30;;
65759;SDS011;52496;51.082;5.066;2024-03-29T03:48:14;2.35;;;1.02;;
65759;SDS011;52496;51.082;5.066;2024-03-29T03:50:45;2.60;;;0.80;;
65759;SDS011;52496;51.082;5.066;2024-03-29T03:53:15;2.92;;;0.90;;
65759;SDS011;52496;51.082;5.066;2024-03-29T03:55:46;1.17;;;0.85;;
65759;SDS011;52496;51.082;5.066;2024-03-29T03:58:16;2.97;;;0.98;;
65759;SDS011;52496;51.082;5.066;2024-03-29T04:00:47;0.82;;;0.80;;
65759;SDS011;52496;51.082;5.066;2024-03-29T04:03:17;1.85;;;1.00;;
65759;SDS011;52496;51.082;5.066;2024-03-29T04:05:48;1.73;;;0.73;;
65759;SDS011;52496;51.082;5.066;2024-03-29T04:08:18;1.48;;;0.93;;
65759;SDS011;52496;51.082;5.066;2024-03-29T04:10:49;3.30;;;1.15;;
65759;SDS011;52496;51.082;5.066;2024-03-29T04:13:20;1.05;;;0.90;;
65759;SDS011;52496;51.082;5.066;2024-03-29T04:15:50;1.98;;;1.23;;
65759;SDS011;52496;51.082;5.066;2024-03-29T04:18:21;2.05;;;1.20;;
65759;SDS011;52496;51.082;5.066;2024-03-29T04:20:58;3.15;;;1.38;;
65759;SDS011;52496;51.082;5.066;2024-03-29T04:23:29;2.88;;;1.02;;
65759;SDS011;52496;51.082;5.066;2024-03-29T04:26:00;6.43;;;1.15;;
65759;SDS011;52496;51.082;5.066;2024-03-29T04:28:30;3.60;;;1.35;;
65759;SDS011;52496;51.082;5.066;2024-03-29T04:31:01;4.60;;;1.25;;
65759;SDS011;52496;51.082;5.066;2024-03-29T04:33:31;5.53;;;1.50;;
65759;SDS011;52496;51.082;5.066;2024-03-29T04:36:03;4.40;;;1.50;;
65759;SDS011;52496;51.082;5.066;2024-03-29T04:38:34;1.13;;;1.02;;
65759;SDS011;52496;51.082;5.066;2024-03-29T04:41:05;5.72;;;1.10;;
65759;SDS011;52496;51.082;5.066;2024-03-29T04:43:35;4.30;;;1.25;;
65759;SDS011;52496;51.082;5.066;2024-03-29T04:46:10;4.60;;;1.35;;
65759;SDS011;52496;51.082;5.066;2024-03-29T04:48:42;2.38;;;1.10;;
65759;SDS011;52496;51.082;5.066;2024-03-29T04:51:13;1.23;;;1.10;;
65759;SDS011;52496;51.082;5.066;2024-03-29T04:53:43;1.45;;;0.90;;
65759;SDS011;52496;51.082;5.066;2024-03-29T04:56:14;1.58;;;1.23;;
65759;SDS011;52496;51.082;5.066;2024-03-29T04:58:45;3.08;;;1.35;;
65759;SDS011;52496;51.082;5.066;2024-03-29T05:01:18;2.97;;;0.98;;
65759;SDS011;52496;51.082;5.066;2024-03-29T05:03:48;4.47;;;1.17;;
65759;SDS011;52496;51.082;5.066;2024-03-29T05:06:21;3.25;;;1.10;;
65759;SDS011;52496;51.082;5.066;2024-03-29T05:08:51;1.48;;;0.88;;
65759;SDS011;52496;51.082;5.066;2024-03-29T05:11:22;1.73;;;0.93;;
65759;SDS011;52496;51.082;5.066;2024-03-29T05:13:53;1.23;;;1.08;;
65759;SDS011;52496;51.082;5.066;2024-03-29T05:16:23;2.53;;;1.08;;
65759;SDS011;52496;51.082;5.066;2024-03-29T05:18:54;0.80;;;0.80;;
65759;SDS011;52496;51.082;5.066;2024-03-29T05:21:24;2.05;;;1.10;;
65759;SDS011;52496;51.082;5.066;2024-03-29T05:23:55;1.58;;;0.88;;
65759;SDS011;52496;51.082;5.066;2024-03-29T05:26:25;5.68;;;1.95;;
65759;SDS011;52496;51.082;5.066;2024-03-29T05:28:56;2.38;;;0.90;;
65759;SDS011;52496;51.082;5.066;2024-03-29T05:31:27;1.20;;;1.05;;
65759;SDS011;52496;51.082;5.066;2024-03-29T05:33:58;1.67;;;1.20;;
65759;SDS011;52496;51.082;5.066;2024-03-29T05:36:30;4.20;;;1.33;;
65759;SDS011;52496;51.082;5.066;2024-03-29T05:39:01;4.57;;;1.10;;
65759;SDS011;52496;51.082;5.066;2024-03-29T05:44:12;1.35;;;1.00;;
65759;SDS011;52496;51.082;5.066;2024-03-29T05:46:43;2.63;;;1.52;;
65759;SDS011;52496;51.082;5.066;2024-03-29T05:49:13;3.03;;;1.27;;
65759;SDS011;52496;51.082;5.066;2024-03-29T05:51:44;1.92;;;1.15;;
65759;SDS011;52496;51.082;5.066;2024-03-29T05:54:14;2.28;;;1.40;;
65759;SDS011;52496;51.082;5.066;2024-03-29T05:56:45;3.13;;;1.27;;
65759;SDS011;52496;51.082;5.066;2024-03-29T05:59:15;1.15;;;0.90;;
65759;SDS011;52496;51.082;5.066;2024-03-29T06:01:46;1.98;;;1.30;;
65759;SDS011;52496;51.082;5.066;2024-03-29T06:04:16;5.18;;;1.77;;
65759;SDS011;52496;51.082;5.066;2024-03-29T06:06:49;1.80;;;1.20;;
65759;SDS011;52496;51.082;5.066;2024-03-29T06:09:20;3.65;;;1.85;;
65759;SDS011;52496;51.082;5.066;2024-03-29T06:11:50;2.83;;;1.08;;
65759;SDS011;52496;51.082;5.066;2024-03-29T06:14:22;1.80;;;1.10;;
65759;SDS011;52496;51.082;5.066;2024-03-29T06:17:11;2.65;;;1.30;;
65759;SDS011;52496;51.082;5.066;2024-03-29T06:19:54;4.35;;;1.70;;
65759;SDS011;52496;51.082;5.066;2024-03-29T06:22:26;4.00;;;1.30;;
65759;SDS011;52496;51.082;5.066;2024-03-29T06:25:00;3.65;;;2.13;;
65759;SDS011;52496;51.082;5.066;2024-03-29T06:27:35;3.72;;;1.65;;
65759;SDS011;52496;51.082;5.066;2024-03-29T06:30:09;4.88;;;1.88;;
65759;SDS011;52496;51.082;5.066;2024-03-29T06:32:40;4.47;;;1.77;;
65759;SDS011;52496;51.082;5.066;2024-03-29T06:35:11;3.47;;;1.88;;
65759;SDS011;52496;51.082;5.066;2024-03-29T06:37:42;5.10;;;1.40;;
65759;SDS011;52496;51.082;5.066;2024-03-29T06:40:13;3.63;;;2.03;;
65759;SDS011;52496;51.082;5.066;2024-03-29T06:42:43;3.78;;;1.50;;
65759;SDS011;52496;51.082;5.066;2024-03-29T06:45:14;1.88;;;1.27;;
65759;SDS011;52496;51.082;5.066;2024-03-29T06:47:44;2.67;;;1.52;;
65759;SDS011;52496;51.082;5.066;2024-03-29T06:50:15;8.93;;;2.17;;
65759;SDS011;52496;51.082;5.066;2024-03-29T06:52:45;4.22;;;1.17;;
65759;SDS011;52496;51.082;5.066;2024-03-29T06:55:16;3.90;;;1.95;;
65759;SDS011;52496;51.082;5.066;2024-03-29T06:57:46;3.63;;;1.67;;
65759;SDS011;52496;51.082;5.066;2024-03-29T07:00:17;4.90;;;1.23;;
65759;SDS011;52496;51.082;5.066;2024-03-29T07:02:47;2.35;;;1.10;;
65759;SDS011;52496;51.082;5.066;2024-03-29T07:05:18;1.60;;;1.10;;
65759;SDS011;52496;51.082;5.066;2024-03-29T07:07:48;3.05;;;0.90;;
65759;SDS011;52496;51.082;5.066;2024-03-29T07:10:19;1.38;;;0.95;;
65759;SDS011;52496;51.082;5.066;2024-03-29T07:12:49;2.42;;;1.38;;
65759;SDS011;52496;51.082;5.066;2024-03-29T07:15:20;4.57;;;1.40;;
65759;SDS011;52496;51.082;5.066;2024-03-29T07:17:50;2.97;;;1.30;;
65759;SDS011;52496;51.082;5.066;2024-03-29T07:20:22;4.85;;;1.10;;
65759;SDS011;52496;51.082;5.066;2024-03-29T07:22:53;2.63;;;1.30;;
65759;SDS011;52496;51.082;5.066;2024-03-29T07:25:23;2.63;;;1.20;;
65759;SDS011;52496;51.082;5.066;2024-03-29T07:27:53;2.60;;;1.27;;
65759;SDS011;52496;51.082;5.066;2024-03-29T07:30:24;2.40;;;1.52;;
65759;SDS011;52496;51.082;5.066;2024-03-29T07:32:55;1.77;;;1.13;;
65759;SDS011;52496;51.082;5.066;2024-03-29T07:35:25;1.80;;;1.05;;
65759;SDS011;52496;51.082;5.066;2024-03-29T07:37:55;2.67;;;1.38;;
65759;SDS011;52496;51.082;5.066;2024-03-29T07:40:27;1.77;;;1.35;;
65759;SDS011;52496;51.082;5.066;2024-03-29T07:42:57;2.72;;;1.50;;
65759;SDS011;52496;51.082;5.066;2024-03-29T07:45:29;2.67;;;1.38;;
65759;SDS011;52496;51.082;5.066;2024-03-29T07:48:01;4.28;;;1.75;;
65759;SDS011;52496;51.082;5.066;2024-03-29T07:50:31;3.47;;;1.60;;
65759;SDS011;52496;51.082;5.066;2024-03-29T07:53:02;4.18;;;1.60;;
65759;SDS011;52496;51.082;5.066;2024-03-29T07:55:32;3.70;;;1.85;;
65759;SDS011;52496;51.082;5.066;2024-03-29T07:58:04;6.60;;;1.85;;
65759;SDS011;52496;51.082;5.066;2024-03-29T08:00:35;2.08;;;1.48;;
65759;SDS011;52496;51.082;5.066;2024-03-29T08:03:13;2.05;;;1.40;;
65759;SDS011;52496;51.082;5.066;2024-03-29T08:05:43;4.50;;;1.48;;
65759;SDS011;52496;51.082;5.066;2024-03-29T08:08:30;5.07;;;1.80;;
65759;SDS011;52496;51.082;5.066;2024-03-29T08:11:01;2.20;;;1.60;;
65759;SDS011;52496;51.082;5.066;2024-03-29T08:13:31;3.95;;;1.92;;
65759;SDS011;52496;51.082;5.066;2024-03-29T08:16:02;3.17;;;1.60;;
65759;SDS011;52496;51.082;5.066;2024-03-29T08:18:32;3.22;;;1.88;;
65759;SDS011;52496;51.082;5.066;2024-03-29T08:21:06;2.58;;;1.55;;
65759;SDS011;52496;51.082;5.066;2024-03-29T08:23:41;2.67;;;1.80;;
65759;SDS011;52496;51.082;5.066;2024-03-29T08:26:16;2.95;;;1.60;;
65759;SDS011;52496;51.082;5.066;2024-03-29T08:28:46;4.88;;;2.33;;
65759;SDS011;52496;51.082;5.066;2024-03-29T08:31:17;3.00;;;1.85;;
65759;SDS011;52496;51.082;5.066;2024-03-29T08:33:49;3.72;;;1.90;;
65759;SDS011;52496;51.082;5.066;2024-03-29T08:36:19;2.72;;;1.50;;
65759;SDS011;52496;51.082;5.066;2024-03-29T08:38:50;4.95;;;1.80;;
65759;SDS011;52496;51.082;5.066;2024-03-29T08:41:20;3.40;;;1.67;;
65759;SDS011;52496;51.082;5.066;2024-03-29T08:43:51;3.03;;;1.60;;
65759;SDS011;52496;51.082;5.066;2024-03-29T08:46:21;3.55;;;1.60;;
65759;SDS011;52496;51.082;5.066;2024-03-29T08:48:52;3.13;;;1.88;;
65759;SDS011;52496;51.082;5.066;2024-03-29T08:51:23;3.53;;;2.00;;
65759;SDS011;52496;51.082;5.066;2024-03-29T08:53:53;3.17;;;1.90;;
65759;SDS011;52496;51.082;5.066;2024-03-29T08:56:24;4.07;;;1.98;;
65759;SDS011;52496;51.082;5.066;2024-03-29T08:58:54;2.90;;;1.98;;
65759;SDS011;52496;51.082;5.066;2024-03-29T09:01:25;5.10;;;2.22;;
65759;SDS011;52496;51.082;5.066;2024-03-29T09:03:55;4.43;;;1.80;;
65759;SDS011;52496;51.082;5.066;2024-03-29T09:06:26;4.00;;;2.38;;
65759;SDS011;52496;51.082;5.066;2024-03-29T09:08:56;3.17;;;2.13;;
65759;SDS011;52496;51.082;5.066;2024-03-29T09:11:27;5.50;;;2.10;;
65759;SDS011;52496;51.082;5.066;2024-03-29T09:13:57;4.30;;;1.92;;
65759;SDS011;52496;51.082;5.066;2024-03-29T09:16:31;4.93;;;2.35;;
65759;SDS011;52496;51.082;5.066;2024-03-29T09:19:01;3.90;;;1.67;;
65759;SDS011;52496;51.082;5.066;2024-03-29T09:21:32;4.03;;;1.95;;
65759;SDS011;52496;51.082;5.066;2024-03-29T09:24:03;3.63;;;1.80;;
65759;SDS011;52496;51.082;5.066;2024-03-29T09:26:33;4.63;;;1.90;;
65759;SDS011;52496;51.082;5.066;2024-03-29T09:29:04;3.60;;;1.77;;
65759;SDS011;52496;51.082;5.066;2024-03-29T09:31:35;3.70;;;2.03;;
65759;SDS011;52496;51.082;5.066;2024-03-29T09:34:05;3.10;;;1.70;;
65759;SDS011;52496;51.082;5.066;2024-03-29T09:36:36;3.65;;;1.92;;
65759;SDS011;52496;51.082;5.066;2024-03-29T09:39:06;5.13;;;1.60;;
65759;SDS011;52496;51.082;5.066;2024-03-29T09:41:38;2.92;;;1.70;;
65759;SDS011;52496;51.082;5.066;2024-03-29T09:44:14;2.58;;;1.50;;
65759;SDS011;52496;51.082;5.066;2024-03-29T09:46:45;5.45;;;1.50;;
65759;SDS011;52496;51.082;5.066;2024-03-29T09:49:16;2.97;;;1.85;;
65759;SDS011;52496;51.082;5.066;2024-03-29T09:51:46;4.03;;;1.75;;
65759;SDS011;52496;51.082;5.066;2024-03-29T09:54:18;5.68;;;1.75;;
65759;SDS011;52496;51.082;5.066;2024-03-29T09:56:49;2.95;;;1.30;;
65759;SDS011;52496;51.082;5.066;2024-03-29T09:59:20;1.77;;;1.38;;
65759;SDS011;52496;51.082;5.066;2024-03-29T10:01:50;1.70;;;1.15;;
65759;SDS011;52496;51.082;5.066;2024-03-29T10:04:24;2.85;;;1.40;;
65759;SDS011;52496;51.082;5.066;2024-03-29T10:06:55;2.15;;;1.42;;
65759;SDS011;52496;51.082;5.066;2024-03-29T10:09:26;1.70;;;1.13;;
65759;SDS011;52496;51.082;5.066;2024-03-29T10:11:59;1.35;;;0.93;;
65759;SDS011;52496;51.082;5.066;2024-03-29T10:14:30;1.40;;;1.00;;
65759;SDS011;52496;51.082;5.066;2024-03-29T10:17:01;4.65;;;1.40;;
65759;SDS011;52496;51.082;5.066;2024-03-29T10:19:31;2.75;;;1.17;;
65759;SDS011;52496;51.082;5.066;2024-03-29T10:22:06;3.92;;;1.48;;
65759;SDS011;52496;51.082;5.066;2024-03-29T10:24:37;2.35;;;1.00;;
65759;SDS011;52496;51.082;5.066;2024-03-29T10:27:07;1.55;;;0.93;;
65759;SDS011;52496;51.082;5.066;2024-03-29T10:29:39;0.73;;;0.73;;
65759;SDS011;52496;51.082;5.066;2024-03-29T10:32:10;1.90;;;1.15;;
65759;SDS011;52496;51.082;5.066;2024-03-29T10:34:40;1.65;;;0.60;;
65759;SDS011;52496;51.082;5.066;2024-03-29T10:37:11;0.88;;;0.80;;
65759;SDS011;52496;51.082;5.066;2024-03-29T10:39:44;1.27;;;0.80;;
65759;SDS011;52496;51.082;5.066;2024-03-29T10:42:15;4.15;;;0.88;;
65759;SDS011;52496;51.082;5.066;2024-03-29T10:44:47;1.75;;;0.95;;
65759;SDS011;52496;51.082;5.066;2024-03-29T10:47:19;1.33;;;0.80;;
65759;SDS011;52496;51.082;5.066;2024-03-29T10:49:52;1.33;;;0.75;;
65759;SDS011;52496;51.082;5.066;2024-03-29T10:52:24;3.58;;;1.23;;
65759;SDS011;52496;51.082;5.066;2024-03-29T10:54:55;1.52;;;0.90;;
65759;SDS011;52496;51.082;5.066;2024-03-29T10:57:26;1.00;;;0.90;;
65759;SDS011;52496;51.082;5.066;2024-03-29T11:00:02;1.77;;;1.13;;
65759;SDS011;52496;51.082;5.066;2024-03-29T11:02:46;1.13;;;0.85;;
65759;SDS011;52496;51.082;5.066;2024-03-29T11:05:22;1.98;;;1.08;;
65759;SDS011;52496;51.082;5.066;2024-03-29T11:07:53;1.80;;;0.98;;
65759;SDS011;52496;51.082;5.066;2024-03-29T11:13:11;2.67;;;1.10;;
65759;SDS011;52496;51.082;5.066;2024-03-29T11:15:49;2.80;;;1.10;;
65759;SDS011;52496;51.082;5.066;2024-03-29T11:18:20;2.53;;;1.05;;
65759;SDS011;52496;51.082;5.066;2024-03-29T11:20:51;2.10;;;1.10;;
65759;SDS011;52496;51.082;5.066;2024-03-29T11:23:25;2.03;;;0.77;;
65759;SDS011;52496;51.082;5.066;2024-03-29T11:25:57;1.40;;;1.00;;
65759;SDS011;52496;51.082;5.066;2024-03-29T11:28:30;1.23;;;1.13;;
65759;SDS011;52496;51.082;5.066;2024-03-29T11:31:08;3.10;;;0.90;;
65759;SDS011;52496;51.082;5.066;2024-03-29T11:38:47;3.03;;;1.10;;
65759;SDS011;52496;51.082;5.066;2024-03-29T11:41:25;3.50;;;1.10;;
65759;SDS011;52496;51.082;5.066;2024-03-29T11:43:57;0.88;;;0.63;;
65759;SDS011;52496;51.082;5.066;2024-03-29T11:46:28;2.25;;;1.10;;
65759;SDS011;52496;51.082;5.066;2024-03-29T11:49:03;0.80;;;0.80;;
65759;SDS011;52496;51.082;5.066;2024-03-29T11:51:34;2.30;;;1.13;;
65759;SDS011;52496;51.082;5.066;2024-03-29T11:54:04;0.98;;;0.88;;
65759;SDS011;52496;51.082;5.066;2024-03-29T11:56:35;1.77;;;1.17;;
65759;SDS011;52496;51.082;5.066;2024-03-29T11:59:06;1.15;;;0.82;;
65759;SDS011;52496;51.082;5.066;2024-03-29T12:01:37;1.33;;;0.95;;
65759;SDS011;52496;51.082;5.066;2024-03-29T12:04:18;1.15;;;0.77;;
65759;SDS011;52496;51.082;5.066;2024-03-29T12:06:50;1.77;;;1.08;;
65759;SDS011;52496;51.082;5.066;2024-03-29T12:09:20;1.13;;;0.68;;
65759;SDS011;52496;51.082;5.066;2024-03-29T12:11:51;2.80;;;1.25;;
65759;SDS011;52496;51.082;5.066;2024-03-29T12:14:22;1.75;;;1.10;;
65759;SDS011;52496;51.082;5.066;2024-03-29T12:16:53;1.75;;;0.98;;
65759;SDS011;52496;51.082;5.066;2024-03-29T12:19:24;1.60;;;0.73;;
65759;SDS011;52496;51.082;5.066;2024-03-29T12:21:54;0.68;;;0.65;;
65759;SDS011;52496;51.082;5.066;2024-03-29T12:24:25;1.17;;;1.08;;
65759;SDS011;52496;51.082;5.066;2024-03-29T12:26:56;1.30;;;0.90;;
65759;SDS011;52496;51.082;5.066;2024-03-29T12:29:27;0.73;;;0.70;;
65759;SDS011;52496;51.082;5.066;2024-03-29T12:31:59;4.05;;;0.95;;
65759;SDS011;52496;51.082;5.066;2024-03-29T12:34:30;1.10;;;0.90;;
65759;SDS011;52496;51.082;5.066;2024-03-29T12:37:01;2.70;;;0.82;;
65759;SDS011;52496;51.082;5.066;2024-03-29T12:39:32;4.40;;;1.35;;
65759;SDS011;52496;51.082;5.066;2024-03-29T12:42:04;1.15;;;0.85;;
65759;SDS011;52496;51.082;5.066;2024-03-29T12:44:35;1.60;;;0.90;;
65759;SDS011;52496;51.082;5.066;2024-03-29T12:47:05;1.40;;;0.93;;
65759;SDS011;52496;51.082;5.066;2024-03-29T12:49:39;4.80;;;0.98;;
65759;SDS011;52496;51.082;5.066;2024-03-29T12:52:10;1.30;;;0.95;;
65759;SDS011;52496;51.082;5.066;2024-03-29T12:54:40;2.33;;;0.63;;
65759;SDS011;52496;51.082;5.066;2024-03-29T12:57:11;1.42;;;0.90;;
65759;SDS011;52496;51.082;5.066;2024-03-29T12:59:41;0.63;;;0.50;;
65759;SDS011;52496;51.082;5.066;2024-03-29T13:02:12;0.77;;;0.70;;
65759;SDS011;52496;51.082;5.066;2024-03-29T13:04:43;1.75;;;1.00;;
65759;SDS011;52496;51.082;5.066;2024-03-29T13:07:15;1.58;;;0.80;;
65759;SDS011;52496;51.082;5.066;2024-03-29T13:09:46;1.13;;;0.65;;
65759;SDS011;52496;51.082;5.066;2024-03-29T13:12:16;1.75;;;0.65;;
65759;SDS011;52496;51.082;5.066;2024-03-29T13:14:47;2.75;;;0.90;;
65759;SDS011;52496;51.082;5.066;2024-03-29T13:17:17;1.20;;;0.75;;
65759;SDS011;52496;51.082;5.066;2024-03-29T13:19:48;0.73;;;0.70;;
65759;SDS011;52496;51.082;5.066;2024-03-29T13:22:18;0.73;;;0.63;;
65759;SDS011;52496;51.082;5.066;2024-03-29T13:24:49;0.75;;;0.55;;
65759;SDS011;52496;51.082;5.066;2024-03-29T13:27:19;1.10;;;0.73;;
65759;SDS011;52496;51.082;5.066;2024-03-29T13:29:50;1.50;;;0.90;;
65759;SDS011;52496;51.082;5.066;2024-03-29T13:32:20;0.88;;;0.60;;
65759;SDS011;52496;51.082;5.066;2024-03-29T13:34:51;1.88;;;0.80;;
65759;SDS011;52496;51.082;5.066;2024-03-29T13:37:21;2.88;;;1.05;;
65759;SDS011;52496;51.082;5.066;2024-03-29T13:39:56;1.92;;;0.70;;
65759;SDS011;52496;51.082;5.066;2024-03-29T13:42:27;2.30;;;0.50;;
65759;SDS011;52496;51.082;5.066;2024-03-29T13:44:57;3.03;;;0.65;;
65759;SDS011;52496;51.082;5.066;2024-03-29T13:47:28;0.98;;;0.60;;
65759;SDS011;52496;51.082;5.066;2024-03-29T13:49:58;1.17;;;0.68;;
65759;SDS011;52496;51.082;5.066;2024-03-29T13:52:29;0.90;;;0.50;;
65759;SDS011;52496;51.082;5.066;2024-03-29T13:55:00;1.63;;;0.68;;
65759;SDS011;52496;51.082;5.066;2024-03-29T13:57:33;0.47;;;0.47;;
65759;SDS011;52496;51.082;5.066;2024-03-29T14:00:03;1.92;;;0.70;;
65759;SDS011;52496;51.082;5.066;2024-03-29T14:02:36;0.68;;;0.68;;
65759;SDS011;52496;51.082;5.066;2024-03-29T14:05:06;1.40;;;0.60;;
65759;SDS011;52496;51.082;5.066;2024-03-29T14:07:36;1.42;;;0.80;;
65759;SDS011;52496;51.082;5.066;2024-03-29T14:10:07;1.42;;;0.82;;
65759;SDS011;52496;51.082;5.066;2024-03-29T14:12:38;0.85;;;0.73;;
65759;SDS011;52496;51.082;5.066;2024-03-29T14:15:08;0.75;;;0.60;;
65759;SDS011;52496;51.082;5.066;2024-03-29T14:17:39;0.82;;;0.55;;
65759;SDS011;52496;51.082;5.066;2024-03-29T14:20:10;1.58;;;0.50;;
65759;SDS011;52496;51.082;5.066;2024-03-29T14:22:41;1.73;;;0.65;;
65759;SDS011;52496;51.082;5.066;2024-03-29T14:25:11;1.42;;;0.70;;
65759;SDS011;52496;51.082;5.066;2024-03-29T14:27:42;1.38;;;0.73;;
65759;SDS011;52496;51.082;5.066;2024-03-29T14:30:24;0.68;;;0.68;;
65759;SDS011;52496;51.082;5.066;2024-03-29T14:32:55;3.28;;;1.60;;
65759;SDS011;52496;51.082;5.066;2024-03-29T14:35:26;2.42;;;1.30;;
65759;SDS011;52496;51.082;5.066;2024-03-29T14:37:57;1.27;;;1.02;;
65759;SDS011;52496;51.082;5.066;2024-03-29T14:40:28;2.47;;;0.90;;
65759;SDS011;52496;51.082;5.066;2024-03-29T14:42:58;2.42;;;1.10;;
65759;SDS011;52496;51.082;5.066;2024-03-29T14:45:29;2.83;;;1.05;;
65759;SDS011;52496;51.082;5.066;2024-03-29T14:48:00;3.22;;;0.85;;
65759;SDS011;52496;51.082;5.066;2024-03-29T14:50:30;0.85;;;0.77;;
65759;SDS011;52496;51.082;5.066;2024-03-29T14:53:01;1.00;;;1.00;;
65759;SDS011;52496;51.082;5.066;2024-03-29T14:55:31;3.00;;;1.10;;
65759;SDS011;52496;51.082;5.066;2024-03-29T14:58:02;3.35;;;0.93;;
65759;SDS011;52496;51.082;5.066;2024-03-29T15:00:33;0.95;;;0.88;;
65759;SDS011;52496;51.082;5.066;2024-03-29T15:03:04;1.17;;;0.93;;
65759;SDS011;52496;51.082;5.066;2024-03-29T15:05:34;1.88;;;1.10;;
65759;SDS011;52496;51.082;5.066;2024-03-29T15:08:06;2.17;;;1.33;;
65759;SDS011;52496;51.082;5.066;2024-03-29T15:10:36;2.40;;;1.10;;
65759;SDS011;52496;51.082;5.066;2024-03-29T15:13:07;2.58;;;0.82;;
65759;SDS011;52496;51.082;5.066;2024-03-29T15:15:37;1.20;;;0.80;;
65759;SDS011;52496;51.082;5.066;2024-03-29T15:18:08;1.58;;;0.90;;
65759;SDS011;52496;51.082;5.066;2024-03-29T15:20:38;2.80;;;1.40;;
65759;SDS011;52496;51.082;5.066;2024-03-29T15:23:09;2.15;;;1.33;;